Time;durP1;ratioP1;P1;durP2;ratioP2;P2;SDS_P1;SDS_P2;PMS_P1;PMS_P2;Temp;Humidity;BMP_temperature;BMP_pressure;BME280_temperature;BME280_humidity;BME280_pressure;Samples;Min_cycle;Max_cycle;Signal;HPM_P1;HPM_P2
2024/01/29 00:02:22;;;;;;;;;;;;;;;;;;4958463;28;20009;-61
2024/01/29 00:04:47;;;;;;;;;;;;;;;;;;4943981;28;20149;-61
2024/01/29 00:07:12;;;;;;;;;;;;;;;;;;4949212;29;19920;-61
2024/01/29 00:09:37;;;;;;;;;;;;;;;;;;4937204;28;19966;-61
2024/01/29 00:12:03;;;;;;;;;;;;;;;;;;4939895;29;20363;-62
2024/01/29 00:14:28;;;;;;;;;;;;;;;;;;4948498;28;19945;-61
2024/01/29 00:16:54;;;;;;;;;;;;;;;;;;4948390;28;19926;-61
2024/01/29 00:19:19;;;;;;;;;;;;;;;;;;4948483;28;19914;-62
2024/01/29 00:21:45;;;;;;;;;;;;;;;;;;4911718;29;19933;-61
2024/01/29 00:24:10;;;;;;;;;;;;;;;;;;4928398;28;19926;-62
2024/01/29 00:26:37;;;;;;;;;;;;;;;;;;4947053;28;19918;-62
2024/01/29 00:29:02;;;;;;;;;;;;;;;;;;4947428;28;20300;-61
2024/01/29 00:31:28;;;;;;;;;;;;;;;;;;4947911;28;19921;-61
2024/01/29 00:33:53;;;;;;;;;;;;;;;;;;4948707;29;20368;-61
2024/01/29 00:36:18;;;;;;;;;;;;;;;;;;4948141;28;19922;-62
2024/01/29 00:38:43;;;;;;;;;;;;;;;;;;4932278;28;19984;-61
2024/01/29 00:41:08;;;;;;;;;;;;;;;;;;4929966;29;19918;-61
2024/01/29 00:43:34;;;;;;;;;;;;;;;;;;4928984;29;19938;-61
2024/01/29 00:45:59;;;;;;;;;;;;;;;;;;4929185;29;19953;-62
2024/01/29 00:48:25;;;;;;;;;;;;;;;;;;4928766;29;19990;-61
2024/01/29 00:50:50;;;;;;;;;;;;;;;;;;4928711;29;19942;-61
2024/01/29 00:53:16;;;;;;;;;;;;;;;;;;4928292;28;19982;-62
2024/01/29 00:55:43;;;;;;;;;;;;;;;;;;4928364;29;19922;-61
2024/01/29 00:58:09;;;;;;;;;;;;;;;;;;4928707;29;19915;-62
2024/01/29 01:00:34;;;;;;;;;;;;;;;;;;4958971;28;19940;-61
2024/01/29 01:02:59;;;;;;;;;;;;;;;;;;4967063;28;19945;-61
2024/01/29 01:05:25;;;;;;;;;;;;;;;;;;4951872;28;19988;-61
2024/01/29 01:07:50;;;;;;;;;;;;;;;;;;4949259;28;19946;-62
2024/01/29 01:10:15;;;;;;;;;;;;;;;;;;4930501;28;19923;-61
2024/01/29 01:12:40;;;;;;;;;;;;;;;;;;4945204;29;20327;-61
2024/01/29 01:15:06;;;;;;;;;;;;;;;;;;4947386;28;19918;-61
2024/01/29 01:17:31;;;;;;;;;;;;;;;;;;4946814;28;19922;-61
2024/01/29 01:19:56;;;;;;;;;;;;;;;;;;4947590;28;19968;-61
2024/01/29 01:22:21;;;;;;;;;;;;;;;;;;4947387;28;19910;-62
2024/01/29 01:24:47;;;;;;;;;;;;;;;;;;4941567;28;19917;-62
2024/01/29 01:27:16;;;;;;;;;;;;;;;;;;4947190;28;19918;-61
2024/01/29 01:29:41;;;;;;;;;;;;;;;;;;4946456;28;20009;-61
2024/01/29 01:32:06;;;;;;;;;;;;;;;;;;4946386;28;20024;-61
2024/01/29 01:34:32;;;;;;;;;;;;;;;;;;4947447;28;20344;-61
2024/01/29 01:36:57;;;;;;;;;;;;;;;;;;4946963;29;19914;-61
2024/01/29 01:39:22;;;;;;;;;;;;;;;;;;4940824;28;19922;-61
2024/01/29 01:41:49;;;;;;;;;;;;;;;;;;4927560;29;20385;-61
2024/01/29 01:44:14;;;;;;;;;;;;;;;;;;4927335;29;20408;-61
2024/01/29 01:46:40;;;;;;;;;;;;;;;;;;4928452;29;19914;-61
2024/01/29 01:49:06;;;;;;;;;;;;;;;;;;4927376;29;19918;-62
2024/01/29 01:51:31;;;;;;;;;;;;;;;;;;4927748;29;20384;-61
2024/01/29 01:53:58;;;;;;;;;;;;;;;;;;4928214;28;19941;-61
2024/01/29 01:56:23;;;;;;;;;;;;;;;;;;4926626;29;20034;-61
2024/01/29 01:58:49;;;;;;;;;;;;;;;;;;4929944;28;20013;-62
2024/01/29 02:01:14;;;;;;;;;;;;;;;;;;4966196;28;19918;-61
2024/01/29 02:03:40;;;;;;;;;;;;;;;;;;4966003;28;19957;-61
2024/01/29 02:06:06;;;;;;;;;;;;;;;;;;4963629;28;19940;-61
2024/01/29 02:08:31;;;;;;;;;;;;;;;;;;4943525;28;19929;-61
2024/01/29 02:10:57;;;;;;;;;;;;;;;;;;4927813;29;19965;-61
2024/01/29 02:13:22;;;;;;;;;;;;;;;;;;4946816;28;20344;-61
2024/01/29 02:15:48;;;;;;;;;;;;;;;;;;4947011;29;19910;-62
2024/01/29 02:18:13;;;;;;;;;;;;;;;;;;4946136;28;20392;-62
2024/01/29 02:20:38;;;;;;;;;;;;;;;;;;4946518;28;19981;-61
2024/01/29 02:23:04;;;;;;;;;;;;;;;;;;4946524;28;19914;-61
2024/01/29 02:25:29;;;;;;;;;;;;;;;;;;4927712;28;20277;-61
2024/01/29 02:27:54;;;;;;;;;;;;;;;;;;4926795;29;20520;-61
2024/01/29 02:30:19;;;;;;;;;;;;;;;;;;4926601;29;19915;-62
2024/01/29 02:32:45;;;;;;;;;;;;;;;;;;4908829;29;19929;-61
2024/01/29 02:35:10;;;;;;;;;;;;;;;;;;4926453;29;19923;-62
2024/01/29 02:37:36;;;;;;;;;;;;;;;;;;4927114;29;19923;-62
2024/01/29 02:40:01;;;;;;;;;;;;;;;;;;4925587;29;19974;-61
2024/01/29 02:42:26;;;;;;;;;;;;;;;;;;4926862;29;19940;-61
2024/01/29 02:44:51;;;;;;;;;;;;;;;;;;4926363;29;19915;-61
2024/01/29 02:47:17;;;;;;;;;;;;;;;;;;4926988;29;19918;-62
2024/01/29 02:49:45;;;;;;;;;;;;;;;;;;4926285;29;20013;-62
2024/01/29 02:52:10;;;;;;;;;;;;;;;;;;4927027;29;19911;-61
2024/01/29 02:54:36;;;;;;;;;;;;;;;;;;4925435;29;19926;-61
2024/01/29 02:57:01;;;;;;;;;;;;;;;;;;4925803;29;20005;-62
2024/01/29 02:59:26;;;;;;;;;;;;;;;;;;4922344;28;19949;-61
2024/01/29 03:01:52;;;;;;;;;;;;;;;;;;4964279;28;19914;-61
2024/01/29 03:04:18;;;;;;;;;;;;;;;;;;4965078;28;19910;-61
2024/01/29 03:06:43;;;;;;;;;;;;;;;;;;4957948;28;19922;-62
2024/01/29 03:09:08;;;;;;;;;;;;;;;;;;4949475;28;20012;-62
2024/01/29 03:11:33;;;;;;;;;;;;;;;;;;4957618;28;20017;-61
2024/01/29 03:14:00;;;;;;;;;;;;;;;;;;4945593;28;19965;-61
2024/01/29 03:16:26;;;;;;;;;;;;;;;;;;4944927;28;19923;-61
2024/01/29 03:18:51;;;;;;;;;;;;;;;;;;4945998;29;19956;-62
2024/01/29 03:21:16;;;;;;;;;;;;;;;;;;4944926;28;19919;-61
2024/01/29 03:23:41;;;;;;;;;;;;;;;;;;4939918;28;19918;-61
2024/01/29 03:26:07;;;;;;;;;;;;;;;;;;4924938;28;19953;-62
2024/01/29 03:28:32;;;;;;;;;;;;;;;;;;4926347;29;20033;-61
2024/01/29 03:30:57;;;;;;;;;;;;;;;;;;4925628;29;20002;-62
2024/01/29 03:33:22;;;;;;;;;;;;;;;;;;4925785;29;20402;-61
2024/01/29 03:35:48;;;;;;;;;;;;;;;;;;4926238;29;20308;-61
2024/01/29 03:38:13;;;;;;;;;;;;;;;;;;4921592;29;19922;-61
2024/01/29 03:40:38;;;;;;;;;;;;;;;;;;4935870;28;19922;-61
2024/01/29 03:43:03;;;;;;;;;;;;;;;;;;4949640;29;20404;-61
2024/01/29 03:45:29;;;;;;;;;;;;;;;;;;4931628;28;19962;-61
2024/01/29 03:47:54;;;;;;;;;;;;;;;;;;4929614;29;19974;-61
2024/01/29 03:50:19;;;;;;;;;;;;;;;;;;4929847;29;20361;-62
2024/01/29 03:52:44;;;;;;;;;;;;;;;;;;4929584;29;19945;-61
2024/01/29 03:55:10;;;;;;;;;;;;;;;;;;4929363;28;19915;-62
2024/01/29 03:57:37;;;;;;;;;;;;;;;;;;4929325;29;19977;-61
2024/01/29 04:00:03;;;;;;;;;;;;;;;;;;4952108;28;19918;-61
2024/01/29 04:02:28;;;;;;;;;;;;;;;;;;4942573;28;20760;-61
2024/01/29 04:04:53;;;;;;;;;;;;;;;;;;4916760;29;19925;-61
2024/01/29 04:07:19;;;;;;;;;;;;;;;;;;4940733;28;19918;-61
2024/01/29 04:09:44;;;;;;;;;;;;;;;;;;4946193;28;20446;-61
2024/01/29 04:12:09;;;;;;;;;;;;;;;;;;4947731;28;20005;-61
2024/01/29 04:14:35;;;;;;;;;;;;;;;;;;4948438;28;19929;-61
2024/01/29 04:17:04;;;;;;;;;;;;;;;;;;4948121;28;19953;-61
2024/01/29 04:19:30;;;;;;;;;;;;;;;;;;4946611;28;20439;-61
2024/01/29 04:21:55;;;;;;;;;;;;;;;;;;4949477;28;20426;-60
2024/01/29 04:24:20;;;;;;;;;;;;;;;;;;4937590;28;20654;-61
2024/01/29 04:26:45;;;;;;;;;;;;;;;;;;4928937;29;19930;-61
2024/01/29 04:29:11;;;;;;;;;;;;;;;;;;4929455;29;19919;-61
2024/01/29 04:31:36;;;;;;;;;;;;;;;;;;4928220;29;19926;-61
2024/01/29 04:34:01;;;;;;;;;;;;;;;;;;4929368;29;19919;-61
2024/01/29 04:36:26;;;;;;;;;;;;;;;;;;4929289;29;19923;-61
2024/01/29 04:38:52;;;;;;;;;;;;;;;;;;4929642;28;20382;-61
2024/01/29 04:41:17;;;;;;;;;;;;;;;;;;4928747;29;20005;-61
2024/01/29 04:43:43;;;;;;;;;;;;;;;;;;4928526;29;19919;-60
2024/01/29 04:46:08;;;;;;;;;;;;;;;;;;4929571;29;19922;-60
2024/01/29 04:48:33;;;;;;;;;;;;;;;;;;4928712;29;20345;-61
2024/01/29 04:50:58;;;;;;;;;;;;;;;;;;4928422;29;19964;-61
2024/01/29 04:53:24;;;;;;;;;;;;;;;;;;4928019;29;19935;-61
2024/01/29 04:55:49;;;;;;;;;;;;;;;;;;4946771;28;19918;-61
2024/01/29 04:58:15;;;;;;;;;;;;;;;;;;4948047;29;20304;-61
2024/01/29 05:00:40;;;;;;;;;;;;;;;;;;4964281;28;20009;-61
2024/01/29 05:03:05;;;;;;;;;;;;;;;;;;4966487;28;19941;-61
2024/01/29 05:05:30;;;;;;;;;;;;;;;;;;4966550;28;20285;-61
2024/01/29 05:07:57;;;;;;;;;;;;;;;;;;4949986;28;19931;-61
2024/01/29 05:10:22;;;;;;;;;;;;;;;;;;4942647;28;19921;-60
2024/01/29 05:12:47;;;;;;;;;;;;;;;;;;4945191;29;19936;-61
2024/01/29 05:15:13;;;;;;;;;;;;;;;;;;4947708;28;19922;-61
2024/01/29 05:17:38;;;;;;;;;;;;;;;;;;4946798;28;19922;-61
2024/01/29 05:20:04;;;;;;;;;;;;;;;;;;4947689;28;20337;-61
2024/01/29 05:22:29;;;;;;;;;;;;;;;;;;4947408;28;19918;-61
2024/01/29 05:24:55;;;;;;;;;;;;;;;;;;4931060;29;19910;-61
2024/01/29 05:27:20;;;;;;;;;;;;;;;;;;4928452;29;19923;-60
2024/01/29 05:29:45;;;;;;;;;;;;;;;;;;4927723;29;19981;-61
2024/01/29 05:32:10;;;;;;;;;;;;;;;;;;4926959;29;19925;-61
2024/01/29 05:34:35;;;;;;;;;;;;;;;;;;4928371;29;20416;-61
2024/01/29 05:37:01;;;;;;;;;;;;;;;;;;4928273;28;19945;-61
2024/01/29 05:39:26;;;;;;;;;;;;;;;;;;4930846;28;20017;-60
2024/01/29 05:41:52;;;;;;;;;;;;;;;;;;4927547;29;19970;-62
2024/01/29 05:44:17;;;;;;;;;;;;;;;;;;4927267;29;20009;-61
2024/01/29 05:46:42;;;;;;;;;;;;;;;;;;4927917;29;20198;-62
2024/01/29 05:49:07;;;;;;;;;;;;;;;;;;4927911;29;19918;-62
2024/01/29 05:51:33;;;;;;;;;;;;;;;;;;4927164;29;19981;-61
2024/01/29 05:53:58;;;;;;;;;;;;;;;;;;4929317;29;20315;-61
2024/01/29 05:56:24;;;;;;;;;;;;;;;;;;4946348;28;19922;-60
2024/01/29 05:58:49;;;;;;;;;;;;;;;;;;4923225;28;19930;-61
2024/01/29 06:01:14;;;;;;;;;;;;;;;;;;4966225;28;19921;-61
2024/01/29 06:03:40;;;;;;;;;;;;;;;;;;4964838;28;19958;-61
2024/01/29 06:06:05;;;;;;;;;;;;;;;;;;4963806;28;19926;-61
2024/01/29 06:08:31;;;;;;;;;;;;;;;;;;4945299;28;19922;-62
2024/01/29 06:10:56;;;;;;;;;;;;;;;;;;4946514;28;19937;-62
2024/01/29 06:13:23;;;;;;;;;;;;;;;;;;4945086;28;20299;-61
2024/01/29 06:15:49;;;;;;;;;;;;;;;;;;4939885;28;20275;-61
2024/01/29 06:18:14;;;;;;;;;;;;;;;;;;4926953;29;20400;-61
2024/01/29 06:20:39;;;;;;;;;;;;;;;;;;4927026;29;20579;-61
2024/01/29 06:23:04;;;;;;;;;;;;;;;;;;4926542;29;20361;-60
2024/01/29 06:25:29;;;;;;;;;;;;;;;;;;4926715;28;20067;-61
2024/01/29 06:27:55;;;;;;;;;;;;;;;;;;4926730;29;20007;-61
2024/01/29 06:30:20;;;;;;;;;;;;;;;;;;4927006;29;19918;-61
2024/01/29 06:32:46;;;;;;;;;;;;;;;;;;4926166;29;19918;-62
2024/01/29 06:35:11;;;;;;;;;;;;;;;;;;4926872;29;19919;-62
2024/01/29 06:37:36;;;;;;;;;;;;;;;;;;4926670;29;20337;-61
2024/01/29 06:40:02;;;;;;;;;;;;;;;;;;4915706;28;19964;-61
2024/01/29 06:42:27;;;;;;;;;;;;;;;;;;4926971;28;20311;-62
2024/01/29 06:44:52;;;;;;;;;;;;;;;;;;4963550;28;20029;-61
2024/01/29 06:47:17;;;;;;;;;;;;;;;;;;4961218;28;19960;-62
2024/01/29 06:49:43;;;;;;;;;;;;;;;;;;4963909;28;19918;-61
2024/01/29 06:52:08;;;;;;;;;;;;;;;;;;4965347;28;20013;-62
2024/01/29 06:54:33;;;;;;;;;;;;;;;;;;4951510;28;19976;-62
2024/01/29 06:56:58;;;;;;;;;;;;;;;;;;4945366;29;19922;-61
2024/01/29 06:59:25;;;;;;;;;;;;;;;;;;4944515;28;19921;-61
2024/01/29 07:01:52;;;;;;;;;;;;;;;;;;4946933;28;19918;-62
2024/01/29 07:04:17;;;;;;;;;;;;;;;;;;4933634;28;19919;-62
2024/01/29 07:06:43;;;;;;;;;;;;;;;;;;4933462;29;19922;-62
2024/01/29 07:09:08;;;;;;;;;;;;;;;;;;4940125;28;19922;-62
2024/01/29 07:11:34;;;;;;;;;;;;;;;;;;4942472;29;19989;-61
2024/01/29 07:13:59;;;;;;;;;;;;;;;;;;4944886;28;19918;-61
2024/01/29 07:16:24;;;;;;;;;;;;;;;;;;4945263;28;19914;-61
2024/01/29 07:18:49;;;;;;;;;;;;;;;;;;4945632;29;19910;-62
2024/01/29 07:21:15;;;;;;;;;;;;;;;;;;4944945;28;19918;-62
2024/01/29 07:23:40;;;;;;;;;;;;;;;;;;4940117;28;19970;-61
2024/01/29 07:26:05;;;;;;;;;;;;;;;;;;4908796;29;19922;-62
2024/01/29 07:28:31;;;;;;;;;;;;;;;;;;4944770;28;20395;-62
2024/01/29 07:30:56;;;;;;;;;;;;;;;;;;4940095;28;20483;-62
2024/01/29 07:33:22;;;;;;;;;;;;;;;;;;4943720;28;19921;-62
2024/01/29 07:35:48;;;;;;;;;;;;;;;;;;4944888;28;19918;-61
2024/01/29 07:38:13;;;;;;;;;;;;;;;;;;4945097;28;19930;-61
2024/01/29 07:40:38;;;;;;;;;;;;;;;;;;4945175;28;19918;-61
2024/01/29 07:43:04;;;;;;;;;;;;;;;;;;4945713;29;19921;-62
2024/01/29 07:45:29;;;;;;;;;;;;;;;;;;4944896;28;19914;-61
2024/01/29 07:47:55;;;;;;;;;;;;;;;;;;4944764;28;20458;-62
2024/01/29 07:50:20;;;;;;;;;;;;;;;;;;4945466;28;19942;-62
2024/01/29 07:52:45;;;;;;;;;;;;;;;;;;4944862;28;19914;-62
2024/01/29 07:55:10;;;;;;;;;;;;;;;;;;4944145;29;20061;-62
2024/01/29 07:57:37;;;;;;;;;;;;;;;;;;4944107;28;20288;-62
2024/01/29 08:00:03;;;;;;;;;;;;;;;;;;4955796;28;19914;-62
2024/01/29 08:02:28;;;;;;;;;;;;;;;;;;4963997;28;20318;-62
2024/01/29 08:04:54;;;;;;;;;;;;;;;;;;4963797;28;19918;-62
2024/01/29 08:07:19;;;;;;;;;;;;;;;;;;4952098;28;20325;-61
2024/01/29 08:09:45;;;;;;;;;;;;;;;;;;4944986;29;19922;-62
2024/01/29 08:12:10;;;;;;;;;;;;;;;;;;4945051;28;20520;-62
2024/01/29 08:14:35;;;;;;;;;;;;;;;;;;4942071;28;20012;-62
2024/01/29 08:17:01;;;;;;;;;;;;;;;;;;4943690;28;19922;-62
2024/01/29 08:19:26;;;;;;;;;;;;;;;;;;4945236;29;20205;-62
2024/01/29 08:21:52;;;;;;;;;;;;;;;;;;4945706;29;20299;-62
2024/01/29 08:24:17;;;;;;;;;;;;;;;;;;4944306;28;19914;-62
2024/01/29 08:26:43;;;;;;;;;;;;;;;;;;4946444;28;19918;-62
2024/01/29 08:29:08;;;;;;;;;;;;;;;;;;4946042;28;20466;-62
2024/01/29 08:31:33;;;;;;;;;;;;;;;;;;4946518;28;19977;-62
2024/01/29 08:33:58;;;;;;;;;;;;;;;;;;4929143;29;20013;-61
2024/01/29 08:36:24;;;;;;;;;;;;;;;;;;4929592;29;20368;-62
2024/01/29 08:38:49;;;;;;;;;;;;;;;;;;4928766;28;19922;-62
2024/01/29 08:41:15;;;;;;;;;;;;;;;;;;4933388;29;20045;-62
2024/01/29 08:43:40;;;;;;;;;;;;;;;;;;4929024;29;19922;-61
2024/01/29 08:46:06;;;;;;;;;;;;;;;;;;4931371;29;19928;-62
2024/01/29 08:48:31;;;;;;;;;;;;;;;;;;4938319;28;20025;-62
2024/01/29 08:50:57;;;;;;;;;;;;;;;;;;4927862;29;19926;-62
2024/01/29 08:53:22;;;;;;;;;;;;;;;;;;4927562;29;19919;-62
2024/01/29 08:55:47;;;;;;;;;;;;;;;;;;4934323;28;20460;-62
2024/01/29 08:58:12;;;;;;;;;;;;;;;;;;4933503;29;19923;-61
2024/01/29 09:00:38;;;;;;;;;;;;;;;;;;4963432;28;19914;-62
2024/01/29 09:03:03;;;;;;;;;;;;;;;;;;4966394;28;19929;-62
2024/01/29 09:05:28;;;;;;;;;;;;;;;;;;4961242;28;19931;-62
2024/01/29 09:07:53;;;;;;;;;;;;;;;;;;4944564;28;19971;-63
2024/01/29 09:10:19;;;;;;;;;;;;;;;;;;4947127;28;19914;-62
2024/01/29 09:12:44;;;;;;;;;;;;;;;;;;4948033;29;19922;-62
2024/01/29 09:15:09;;;;;;;;;;;;;;;;;;4937754;28;20072;-63
2024/01/29 09:17:35;;;;;;;;;;;;;;;;;;4934894;28;19946;-62
2024/01/29 09:20:01;;;;;;;;;;;;;;;;;;4927676;29;19942;-61
2024/01/29 09:22:26;;;;;;;;;;;;;;;;;;4929128;28;19928;-61
2024/01/29 09:24:51;;;;;;;;;;;;;;;;;;4933010;28;19925;-61
2024/01/29 09:27:17;;;;;;;;;;;;;;;;;;4917172;29;19958;-61
2024/01/29 09:29:42;;;;;;;;;;;;;;;;;;4929689;29;19998;-61
2024/01/29 09:32:07;;;;;;;;;;;;;;;;;;4920062;29;19925;-61
2024/01/29 09:34:33;;;;;;;;;;;;;;;;;;4934355;28;19965;-60
2024/01/29 09:36:58;;;;;;;;;;;;;;;;;;4932344;28;20004;-61
2024/01/29 09:39:24;;;;;;;;;;;;;;;;;;4930991;28;19942;-61
2024/01/29 09:41:50;;;;;;;;;;;;;;;;;;4929976;28;20013;-61
2024/01/29 09:44:15;;;;;;;;;;;;;;;;;;4935896;29;20005;-61
2024/01/29 09:46:41;;;;;;;;;;;;;;;;;;4930086;29;19926;-61
2024/01/29 09:49:07;;;;;;;;;;;;;;;;;;4931614;29;19965;-61
2024/01/29 09:51:33;;;;;;;;;;;;;;;;;;4935923;28;19922;-61
2024/01/29 09:53:59;;;;;;;;;;;;;;;;;;4931090;29;19919;-61
2024/01/29 09:56:24;;;;;;;;;;;;;;;;;;4927104;29;20352;-61
2024/01/29 09:58:50;;;;;;;;;;;;;;;;;;4930151;28;19970;-61
2024/01/29 10:01:18;;;;;;;;;;;;;;;;;;4940702;28;19919;-61
2024/01/29 10:03:43;;;;;;;;;;;;;;;;;;4930640;29;19978;-61
2024/01/29 10:06:10;;;;;;;;;;;;;;;;;;4934819;29;19931;-61
2024/01/29 10:08:37;;;;;;;;;;;;;;;;;;4931591;29;20399;-60
2024/01/29 10:11:02;;;;;;;;;;;;;;;;;;4934092;29;19922;-61
2024/01/29 10:13:27;;;;;;;;;;;;;;;;;;4937998;28;19969;-61
2024/01/29 10:15:53;;;;;;;;;;;;;;;;;;4931956;29;19918;-61
2024/01/29 10:18:18;;;;;;;;;;;;;;;;;;4932216;28;19922;-60
2024/01/29 10:20:43;;;;;;;;;;;;;;;;;;4911746;29;19918;-61
2024/01/29 10:23:09;;;;;;;;;;;;;;;;;;4924884;28;20411;-61
2024/01/29 10:25:34;;;;;;;;;;;;;;;;;;4932486;28;19918;-61
2024/01/29 10:28:09;;;;;;;;;;;;;;;;;;4933322;29;19918;-61
2024/01/29 10:30:34;;;;;;;;;;;;;;;;;;4937967;29;19922;-61
2024/01/29 10:33:00;;;;;;;;;;;;;;;;;;4945269;28;20307;-60
2024/01/29 10:35:25;;;;;;;;;;;;;;;;;;4945386;29;19969;-60
2024/01/29 10:37:50;;;;;;;;;;;;;;;;;;4944908;29;20402;-61
2024/01/29 10:40:18;;;;;;;;;;;;;;;;;;4927040;29;19954;-61
2024/01/29 10:42:45;;;;;;;;;;;;;;;;;;4935368;28;19937;-62
2024/01/29 10:45:11;;;;;;;;;;;;;;;;;;4941160;28;19925;-62
2024/01/29 10:47:41;;;;;;;;;;;;;;;;;;4944995;28;19960;-61
2024/01/29 10:50:07;;;;;;;;;;;;;;;;;;4944590;28;20360;-61
2024/01/29 10:52:33;;;;;;;;;;;;;;;;;;4945584;28;19980;-61
2024/01/29 10:54:58;;;;;;;;;;;;;;;;;;4945259;29;19910;-61
2024/01/29 10:57:24;;;;;;;;;;;;;;;;;;4944667;28;20319;-61
2024/01/29 10:59:51;;;;;;;;;;;;;;;;;;4930570;28;19922;-62
2024/01/29 11:02:16;;;;;;;;;;;;;;;;;;4928930;29;20296;-61
2024/01/29 11:04:42;;;;;;;;;;;;;;;;;;4931210;28;19922;-61
2024/01/29 11:07:15;;;;;;;;;;;;;;;;;;4934923;29;20209;-61
2024/01/29 11:09:47;;;;;;;;;;;;;;;;;;4943696;29;19925;-61
2024/01/29 11:12:13;;;;;;;;;;;;;;;;;;4944956;28;19926;-61
2024/01/29 11:14:39;;;;;;;;;;;;;;;;;;4944647;28;19918;-62
2024/01/29 11:17:06;;;;;;;;;;;;;;;;;;4944809;28;19922;-61
2024/01/29 11:19:34;;;;;;;;;;;;;;;;;;4944911;28;19942;-62
2024/01/29 11:22:00;;;;;;;;;;;;;;;;;;4945404;28;20050;-61
2024/01/29 11:24:26;;;;;;;;;;;;;;;;;;4944730;28;19946;-61
2024/01/29 11:26:51;;;;;;;;;;;;;;;;;;4931904;28;19922;-62
2024/01/29 11:29:21;;;;;;;;;;;;;;;;;;4925354;29;19926;-61
2024/01/29 11:31:48;;;;;;;;;;;;;;;;;;4924799;29;19914;-61
2024/01/29 11:34:14;;;;;;;;;;;;;;;;;;4926534;29;20080;-61
2024/01/29 11:36:39;;;;;;;;;;;;;;;;;;4924199;29;20029;-61
2024/01/29 11:39:06;;;;;;;;;;;;;;;;;;4925558;29;19941;-62
2024/01/29 11:41:32;;;;;;;;;;;;;;;;;;4925296;29;19953;-61
2024/01/29 11:43:59;;;;;;;;;;;;;;;;;;4925022;29;19922;-61
2024/01/29 11:46:26;;;;;;;;;;;;;;;;;;4925095;29;20848;-61
2024/01/29 11:48:54;;;;;;;;;;;;;;;;;;4926447;29;19915;-61
2024/01/29 11:51:19;;;;;;;;;;;;;;;;;;4924915;29;19954;-62
2024/01/29 11:53:49;;;;;;;;;;;;;;;;;;4925152;29;20576;-61
2024/01/29 11:56:15;;;;;;;;;;;;;;;;;;4925797;29;19918;-62
2024/01/29 11:58:40;;;;;;;;;;;;;;;;;;4926336;28;20922;-61
2024/01/29 12:01:05;;;;;;;;;;;;;;;;;;4964825;28;19916;-61
2024/01/29 12:03:42;;;;;;;;;;;;;;;;;;4967564;28;19968;-61
2024/01/29 12:06:07;;;;;;;;;;;;;;;;;;4938266;28;19981;-61
2024/01/29 12:08:32;;;;;;;;;;;;;;;;;;4933513;28;19961;-61
2024/01/29 12:10:59;;;;;;;;;;;;;;;;;;4940416;28;20005;-61
2024/01/29 12:13:24;;;;;;;;;;;;;;;;;;4928066;29;19965;-61
2024/01/29 12:15:52;;;;;;;;;;;;;;;;;;4931327;29;19962;-61
2024/01/29 12:18:21;;;;;;;;;;;;;;;;;;4936653;29;19930;-62
2024/01/29 12:20:47;;;;;;;;;;;;;;;;;;4938025;28;19948;-61
2024/01/29 12:23:13;;;;;;;;;;;;;;;;;;4933526;28;19969;-62
2024/01/29 12:25:39;;;;;;;;;;;;;;;;;;4934943;28;19926;-62
2024/01/29 12:28:09;;;;;;;;;;;;;;;;;;4940224;29;19915;-62
2024/01/29 12:30:34;;;;;;;;;;;;;;;;;;4942935;29;20021;-62
2024/01/29 12:33:00;;;;;;;;;;;;;;;;;;4931067;28;20022;-61
2024/01/29 12:35:25;;;;;;;;;;;;;;;;;;4937124;29;20061;-61
2024/01/29 12:37:51;;;;;;;;;;;;;;;;;;4945775;28;19978;-61
2024/01/29 12:40:16;;;;;;;;;;;;;;;;;;4928202;29;20304;-61
2024/01/29 12:42:41;;;;;;;;;;;;;;;;;;4930905;29;20021;-61
2024/01/29 12:45:10;;;;;;;;;;;;;;;;;;4934929;29;20424;-62
2024/01/29 12:47:35;;;;;;;;;;;;;;;;;;4926321;28;19929;-61
2024/01/29 12:50:00;;;;;;;;;;;;;;;;;;4934837;28;19923;-61
2024/01/29 12:52:28;;;;;;;;;;;;;;;;;;4927795;29;20380;-61
2024/01/29 12:54:56;;;;;;;;;;;;;;;;;;4935877;29;19910;-62
2024/01/29 12:57:21;;;;;;;;;;;;;;;;;;4932028;28;20424;-61
2024/01/29 12:59:46;;;;;;;;;;;;;;;;;;4938487;28;19922;-61
2024/01/29 13:02:11;;;;;;;;;;;;;;;;;;4932783;29;20009;-61
2024/01/29 13:04:37;;;;;;;;;;;;;;;;;;4927404;29;20067;-62
2024/01/29 13:07:02;;;;;;;;;;;;;;;;;;4935934;29;19923;-61
2024/01/29 13:09:27;;;;;;;;;;;;;;;;;;4947152;28;19918;-61
2024/01/29 13:11:53;;;;;;;;;;;;;;;;;;4946606;28;20399;-61
2024/01/29 13:14:19;;;;;;;;;;;;;;;;;;4940872;28;19922;-61
2024/01/29 13:16:45;;;;;;;;;;;;;;;;;;4925954;29;19980;-62
2024/01/29 13:19:10;;;;;;;;;;;;;;;;;;4928226;29;20398;-61
2024/01/29 13:21:36;;;;;;;;;;;;;;;;;;4927555;29;19922;-61
2024/01/29 13:24:01;;;;;;;;;;;;;;;;;;4927742;29;20029;-61
2024/01/29 13:26:31;;;;;;;;;;;;;;;;;;4928334;29;20002;-61
2024/01/29 13:28:57;;;;;;;;;;;;;;;;;;4932185;28;19922;-61
2024/01/29 13:31:22;;;;;;;;;;;;;;;;;;4946510;28;19914;-61
2024/01/29 13:33:48;;;;;;;;;;;;;;;;;;4947470;28;19925;-61
2024/01/29 13:36:13;;;;;;;;;;;;;;;;;;4946862;28;19926;-61
2024/01/29 13:38:38;;;;;;;;;;;;;;;;;;4945669;28;20384;-61
2024/01/29 13:41:04;;;;;;;;;;;;;;;;;;4941713;29;20017;-61
2024/01/29 13:43:29;;;;;;;;;;;;;;;;;;4946700;28;20762;-61
2024/01/29 13:45:54;;;;;;;;;;;;;;;;;;4945875;29;19910;-61
2024/01/29 13:48:21;;;;;;;;;;;;;;;;;;4946272;28;19918;-62
2024/01/29 13:50:46;;;;;;;;;;;;;;;;;;4946294;28;19915;-62
2024/01/29 13:53:11;;;;;;;;;;;;;;;;;;4945974;28;20433;-61
2024/01/29 13:55:37;;;;;;;;;;;;;;;;;;4946369;28;19961;-61
2024/01/29 13:58:02;;;;;;;;;;;;;;;;;;4944440;29;19914;-62
2024/01/29 14:00:27;;;;;;;;;;;;;;;;;;4960512;28;20000;-62
2024/01/29 14:02:52;;;;;;;;;;;;;;;;;;4964901;28;19977;-61
2024/01/29 14:05:17;;;;;;;;;;;;;;;;;;4937628;28;20339;-62
2024/01/29 14:07:43;;;;;;;;;;;;;;;;;;4941526;28;19922;-62
2024/01/29 14:10:08;;;;;;;;;;;;;;;;;;4946363;29;20012;-62
2024/01/29 14:12:34;;;;;;;;;;;;;;;;;;4945719;28;20001;-61
2024/01/29 14:15:01;;;;;;;;;;;;;;;;;;4945541;28;19957;-61
2024/01/29 14:17:26;;;;;;;;;;;;;;;;;;4943929;29;20488;-61
2024/01/29 14:19:52;;;;;;;;;;;;;;;;;;4946037;28;20376;-61
2024/01/29 14:22:18;;;;;;;;;;;;;;;;;;4946039;28;19918;-62
2024/01/29 14:24:43;;;;;;;;;;;;;;;;;;4945171;28;19965;-61
2024/01/29 14:27:09;;;;;;;;;;;;;;;;;;4944654;28;20403;-61
2024/01/29 14:29:34;;;;;;;;;;;;;;;;;;4942846;29;19922;-60
2024/01/29 14:31:59;;;;;;;;;;;;;;;;;;4925994;29;20437;-61
2024/01/29 14:34:24;;;;;;;;;;;;;;;;;;4926292;29;19918;-61
2024/01/29 14:36:50;;;;;;;;;;;;;;;;;;4930623;29;19923;-61
2024/01/29 14:39:15;;;;;;;;;;;;;;;;;;4930108;28;20020;-62
2024/01/29 14:41:50;;;;;;;;;;;;;;;;;;4935459;28;19918;-62
2024/01/29 14:44:16;;;;;;;;;;;;;;;;;;4938675;28;20631;-62
2024/01/29 14:46:41;;;;;;;;;;;;;;;;;;4939967;29;19919;-62
2024/01/29 14:49:07;;;;;;;;;;;;;;;;;;4944094;29;20339;-62
2024/01/29 14:51:32;;;;;;;;;;;;;;;;;;4945546;29;19918;-62
2024/01/29 14:53:58;;;;;;;;;;;;;;;;;;4945429;28;19956;-62
2024/01/29 14:56:23;;;;;;;;;;;;;;;;;;4937388;29;20336;-62
2024/01/29 14:58:48;;;;;;;;;;;;;;;;;;4943381;28;20583;-62
2024/01/29 15:01:14;;;;;;;;;;;;;;;;;;4926869;29;19911;-62
2024/01/29 15:03:39;;;;;;;;;;;;;;;;;;4925441;29;20309;-62
2024/01/29 15:06:06;;;;;;;;;;;;;;;;;;4934050;29;20413;-61
2024/01/29 15:08:32;;;;;;;;;;;;;;;;;;4945250;28;19918;-62
2024/01/29 15:10:58;;;;;;;;;;;;;;;;;;4944685;28;20445;-62
2024/01/29 15:13:24;;;;;;;;;;;;;;;;;;4930911;29;20384;-62
2024/01/29 15:15:49;;;;;;;;;;;;;;;;;;4926227;29;19973;-63
2024/01/29 15:18:14;;;;;;;;;;;;;;;;;;4925990;29;20576;-61
2024/01/29 15:20:39;;;;;;;;;;;;;;;;;;4925251;29;19919;-62
2024/01/29 15:23:05;;;;;;;;;;;;;;;;;;4925522;29;19978;-62
2024/01/29 15:25:30;;;;;;;;;;;;;;;;;;4926254;29;20388;-62
2024/01/29 15:27:55;;;;;;;;;;;;;;;;;;4925497;29;20422;-61
2024/01/29 15:30:20;;;;;;;;;;;;;;;;;;4925742;29;20009;-62
2024/01/29 15:32:46;;;;;;;;;;;;;;;;;;4925431;29;19915;-62
2024/01/29 15:35:11;;;;;;;;;;;;;;;;;;4925869;29;19938;-62
2024/01/29 15:37:36;;;;;;;;;;;;;;;;;;4928479;29;19927;-62
2024/01/29 15:40:03;;;;;;;;;;;;;;;;;;4943375;28;20388;-61
2024/01/29 15:42:30;;;;;;;;;;;;;;;;;;4933365;28;20397;-62
2024/01/29 15:44:55;;;;;;;;;;;;;;;;;;4933331;29;20589;-61
2024/01/29 15:47:21;;;;;;;;;;;;;;;;;;4928920;28;20602;-61
2024/01/29 15:49:46;;;;;;;;;;;;;;;;;;4935514;28;19921;-61
2024/01/29 15:52:11;;;;;;;;;;;;;;;;;;4949028;29;19914;-62
2024/01/29 15:54:36;;;;;;;;;;;;;;;;;;4947857;28;19918;-61
2024/01/29 15:57:05;;;;;;;;;;;;;;;;;;4948677;28;19970;-61
2024/01/29 15:59:31;;;;;;;;;;;;;;;;;;4948294;28;20174;-62
2024/01/29 16:01:57;;;;;;;;;;;;;;;;;;4947474;28;20403;-61
2024/01/29 16:04:22;;;;;;;;;;;;;;;;;;4948458;28;19917;-61
2024/01/29 16:06:48;;;;;;;;;;;;;;;;;;4946499;29;19936;-62
2024/01/29 16:09:13;;;;;;;;;;;;;;;;;;4945579;28;20020;-62
2024/01/29 16:11:38;;;;;;;;;;;;;;;;;;4948333;28;20399;-61
2024/01/29 16:14:03;;;;;;;;;;;;;;;;;;4947996;28;20320;-61
2024/01/29 16:16:28;;;;;;;;;;;;;;;;;;4947525;28;20162;-62
2024/01/29 16:18:54;;;;;;;;;;;;;;;;;;4949040;29;19914;-62
2024/01/29 16:21:22;;;;;;;;;;;;;;;;;;4947180;28;19919;-62
2024/01/29 16:23:48;;;;;;;;;;;;;;;;;;4948120;28;19969;-61
2024/01/29 16:26:17;;;;;;;;;;;;;;;;;;4948143;28;19919;-62
2024/01/29 16:28:42;;;;;;;;;;;;;;;;;;4947767;28;20304;-62
2024/01/29 16:31:07;;;;;;;;;;;;;;;;;;4947278;29;20590;-62
2024/01/29 16:33:33;;;;;;;;;;;;;;;;;;4948321;28;20316;-62
2024/01/29 16:35:58;;;;;;;;;;;;;;;;;;4947721;28;20648;-61